Terminal Aerodrome Forecast
Issued by NWS Albany, NY

Home | Current Version | Previous Version | Text Only | Print | Product List | Glossary On
Versions: 1 2 3 4 5 6 7 8 9 10 11 12 13 14 15 16 17 18 19 20 21 22 23 24 25 26 27 28 29 30 31 32 33 34 35 36 37 38 39 40 41 42 43 44 45 46 47 48 49 50
000
FTUS41 KALY 211906 AAA
TAFALB
TAF AMD
KALB 211906Z 2119/2218 17010KT P6SM SCT040 BKN250
     FM212100 18010G19KT P6SM VCSH BKN035
     FM220000 VRB04KT P6SM OVC035
     FM220500 34005KT P6SM OVC025
     FM221400 35008KT P6SM BKN020 OVC035=

USA.gov is the U.S. government's official web portal to all federal, state and local government web resources and services.